sensor_id;sensor_type;location;lat;lon;timestamp;P1;durP1;ratioP1;P2;durP2;ratioP2
65572;SDS011;52214;50.940;13.996;2022-07-23T00:00:31;7.25;;;5.10;;
65572;SDS011;52214;50.940;13.996;2022-07-23T00:02:57;7.32;;;5.15;;
65572;SDS011;52214;50.940;13.996;2022-07-23T00:05:22;7.93;;;5.63;;
65572;SDS011;52214;50.940;13.996;2022-07-23T00:07:48;7.67;;;5.10;;
65572;SDS011;52214;50.940;13.996;2022-07-23T00:10:13;10.03;;;5.50;;
65572;SDS011;52214;50.940;13.996;2022-07-23T00:12:39;7.83;;;4.90;;
65572;SDS011;52214;50.940;13.996;2022-07-23T00:15:05;8.43;;;5.65;;
65572;SDS011;52214;50.940;13.996;2022-07-23T00:17:32;8.68;;;5.57;;
65572;SDS011;52214;50.940;13.996;2022-07-23T00:19:58;10.57;;;5.47;;
65572;SDS011;52214;50.940;13.996;2022-07-23T00:24:59;7.45;;;5.40;;
65572;SDS011;52214;50.940;13.996;2022-07-23T00:27:24;8.37;;;5.30;;
65572;SDS011;52214;50.940;13.996;2022-07-23T00:29:50;6.80;;;5.10;;
65572;SDS011;52214;50.940;13.996;2022-07-23T00:32:15;8.20;;;5.57;;
65572;SDS011;52214;50.940;13.996;2022-07-23T00:34:41;8.10;;;6.00;;
65572;SDS011;52214;50.940;13.996;2022-07-23T00:37:06;9.60;;;6.37;;
65572;SDS011;52214;50.940;13.996;2022-07-23T00:39:32;8.20;;;6.10;;
65572;SDS011;52214;50.940;13.996;2022-07-23T00:41:57;8.50;;;6.30;;
65572;SDS011;52214;50.940;13.996;2022-07-23T00:44:26;8.27;;;5.70;;
65572;SDS011;52214;50.940;13.996;2022-07-23T00:46:54;8.80;;;6.13;;
65572;SDS011;52214;50.940;13.996;2022-07-23T00:49:28;9.68;;;5.93;;
65572;SDS011;52214;50.940;13.996;2022-07-23T00:51:55;8.55;;;5.80;;
65572;SDS011;52214;50.940;13.996;2022-07-23T00:54:22;11.13;;;6.13;;
65572;SDS011;52214;50.940;13.996;2022-07-23T00:56:50;8.18;;;5.97;;
65572;SDS011;52214;50.940;13.996;2022-07-23T00:59:15;8.60;;;5.93;;
65572;SDS011;52214;50.940;13.996;2022-07-23T01:01:41;8.27;;;6.07;;
65572;SDS011;52214;50.940;13.996;2022-07-23T01:04:09;12.30;;;6.60;;
65572;SDS011;52214;50.940;13.996;2022-07-23T01:06:35;8.33;;;6.30;;
65572;SDS011;52214;50.940;13.996;2022-07-23T01:09:05;7.95;;;5.70;;
65572;SDS011;52214;50.940;13.996;2022-07-23T01:11:35;9.52;;;6.22;;
65572;SDS011;52214;50.940;13.996;2022-07-23T01:14:14;8.57;;;6.15;;
65572;SDS011;52214;50.940;13.996;2022-07-23T01:16:42;8.30;;;6.20;;
65572;SDS011;52214;50.940;13.996;2022-07-23T01:19:09;7.57;;;5.80;;
65572;SDS011;52214;50.940;13.996;2022-07-23T01:21:36;9.98;;;6.30;;
65572;SDS011;52214;50.940;13.996;2022-07-23T01:24:03;9.32;;;6.57;;
65572;SDS011;52214;50.940;13.996;2022-07-23T01:26:29;10.52;;;5.88;;
65572;SDS011;52214;50.940;13.996;2022-07-23T01:28:55;9.00;;;6.03;;
65572;SDS011;52214;50.940;13.996;2022-07-23T01:31:21;8.15;;;6.10;;
65572;SDS011;52214;50.940;13.996;2022-07-23T01:33:47;9.43;;;6.43;;
65572;SDS011;52214;50.940;13.996;2022-07-23T01:36:13;9.93;;;5.80;;
65572;SDS011;52214;50.940;13.996;2022-07-23T01:38:38;9.75;;;6.57;;
65572;SDS011;52214;50.940;13.996;2022-07-23T01:41:04;9.23;;;6.07;;
65572;SDS011;52214;50.940;13.996;2022-07-23T01:43:29;9.47;;;6.00;;
65572;SDS011;52214;50.940;13.996;2022-07-23T01:45:55;9.80;;;6.30;;
65572;SDS011;52214;50.940;13.996;2022-07-23T01:48:20;7.88;;;6.03;;
65572;SDS011;52214;50.940;13.996;2022-07-23T01:50:47;12.33;;;6.20;;
65572;SDS011;52214;50.940;13.996;2022-07-23T01:53:13;10.30;;;5.85;;
65572;SDS011;52214;50.940;13.996;2022-07-23T01:55:39;8.80;;;6.13;;
65572;SDS011;52214;50.940;13.996;2022-07-23T01:58:05;8.97;;;5.97;;
65572;SDS011;52214;50.940;13.996;2022-07-23T02:00:31;7.85;;;5.55;;
65572;SDS011;52214;50.940;13.996;2022-07-23T02:02:57;9.33;;;5.73;;
65572;SDS011;52214;50.940;13.996;2022-07-23T02:05:24;8.32;;;5.65;;
65572;SDS011;52214;50.940;13.996;2022-07-23T02:07:57;7.88;;;6.07;;
65572;SDS011;52214;50.940;13.996;2022-07-23T02:10:24;8.52;;;5.80;;
65572;SDS011;52214;50.940;13.996;2022-07-23T02:12:49;8.32;;;6.30;;
65572;SDS011;52214;50.940;13.996;2022-07-23T02:15:15;8.00;;;6.00;;
65572;SDS011;52214;50.940;13.996;2022-07-23T02:17:41;9.57;;;6.23;;
65572;SDS011;52214;50.940;13.996;2022-07-23T02:20:06;9.38;;;6.35;;
65572;SDS011;52214;50.940;13.996;2022-07-23T02:22:34;10.05;;;6.10;;
65572;SDS011;52214;50.940;13.996;2022-07-23T02:24:59;7.70;;;5.80;;
65572;SDS011;52214;50.940;13.996;2022-07-23T02:27:25;8.05;;;5.72;;
65572;SDS011;52214;50.940;13.996;2022-07-23T02:29:50;9.07;;;6.07;;
65572;SDS011;52214;50.940;13.996;2022-07-23T02:32:16;8.03;;;5.90;;
65572;SDS011;52214;50.940;13.996;2022-07-23T02:34:42;9.98;;;7.18;;
65572;SDS011;52214;50.940;13.996;2022-07-23T02:37:07;9.50;;;6.63;;
65572;SDS011;52214;50.940;13.996;2022-07-23T02:39:34;9.40;;;6.07;;
65572;SDS011;52214;50.940;13.996;2022-07-23T02:42:00;9.40;;;6.45;;
65572;SDS011;52214;50.940;13.996;2022-07-23T02:44:26;10.77;;;6.18;;
65572;SDS011;52214;50.940;13.996;2022-07-23T02:46:51;9.40;;;6.00;;
65572;SDS011;52214;50.940;13.996;2022-07-23T02:49:17;12.02;;;6.38;;
65572;SDS011;52214;50.940;13.996;2022-07-23T02:51:42;9.03;;;6.37;;
65572;SDS011;52214;50.940;13.996;2022-07-23T02:54:08;10.17;;;6.73;;
65572;SDS011;52214;50.940;13.996;2022-07-23T02:56:33;10.75;;;6.43;;
65572;SDS011;52214;50.940;13.996;2022-07-23T02:58:59;8.83;;;6.47;;
65572;SDS011;52214;50.940;13.996;2022-07-23T03:01:24;7.90;;;5.80;;
65572;SDS011;52214;50.940;13.996;2022-07-23T03:03:50;8.27;;;5.97;;
65572;SDS011;52214;50.940;13.996;2022-07-23T03:06:16;7.70;;;5.65;;
65572;SDS011;52214;50.940;13.996;2022-07-23T03:08:41;8.53;;;5.97;;
65572;SDS011;52214;50.940;13.996;2022-07-23T03:11:07;10.07;;;6.00;;
65572;SDS011;52214;50.940;13.996;2022-07-23T03:13:38;10.63;;;6.00;;
65572;SDS011;52214;50.940;13.996;2022-07-23T03:16:05;7.80;;;5.97;;
65572;SDS011;52214;50.940;13.996;2022-07-23T03:18:31;8.60;;;5.80;;
65572;SDS011;52214;50.940;13.996;2022-07-23T03:20:57;8.23;;;5.78;;
65572;SDS011;52214;50.940;13.996;2022-07-23T03:23:22;11.73;;;6.43;;
65572;SDS011;52214;50.940;13.996;2022-07-23T03:25:48;7.70;;;6.00;;
65572;SDS011;52214;50.940;13.996;2022-07-23T03:28:14;9.05;;;5.97;;
65572;SDS011;52214;50.940;13.996;2022-07-23T03:30:41;8.07;;;6.07;;
65572;SDS011;52214;50.940;13.996;2022-07-23T03:33:08;9.15;;;6.13;;
65572;SDS011;52214;50.940;13.996;2022-07-23T03:35:33;9.07;;;6.85;;
65572;SDS011;52214;50.940;13.996;2022-07-23T03:37:59;8.50;;;6.17;;
65572;SDS011;52214;50.940;13.996;2022-07-23T03:40:24;8.93;;;6.67;;
65572;SDS011;52214;50.940;13.996;2022-07-23T03:42:50;11.95;;;6.95;;
65572;SDS011;52214;50.940;13.996;2022-07-23T03:45:15;10.13;;;6.50;;
65572;SDS011;52214;50.940;13.996;2022-07-23T03:47:41;10.23;;;6.80;;
65572;SDS011;52214;50.940;13.996;2022-07-23T03:50:06;9.40;;;6.80;;
65572;SDS011;52214;50.940;13.996;2022-07-23T03:52:32;9.68;;;7.05;;
65572;SDS011;52214;50.940;13.996;2022-07-23T03:54:58;9.60;;;6.47;;
65572;SDS011;52214;50.940;13.996;2022-07-23T03:57:23;9.35;;;6.50;;
65572;SDS011;52214;50.940;13.996;2022-07-23T03:59:49;10.00;;;6.63;;
65572;SDS011;52214;50.940;13.996;2022-07-23T04:02:14;8.30;;;6.13;;
65572;SDS011;52214;50.940;13.996;2022-07-23T04:04:40;9.87;;;6.40;;
65572;SDS011;52214;50.940;13.996;2022-07-23T04:07:05;10.60;;;6.72;;
65572;SDS011;52214;50.940;13.996;2022-07-23T04:09:32;10.05;;;6.28;;
65572;SDS011;52214;50.940;13.996;2022-07-23T04:11:59;12.93;;;7.75;;
65572;SDS011;52214;50.940;13.996;2022-07-23T04:14:24;9.27;;;6.90;;
65572;SDS011;52214;50.940;13.996;2022-07-23T04:16:50;8.07;;;6.63;;
65572;SDS011;52214;50.940;13.996;2022-07-23T04:19:16;8.50;;;6.70;;
65572;SDS011;52214;50.940;13.996;2022-07-23T04:21:41;8.45;;;6.68;;
65572;SDS011;52214;50.940;13.996;2022-07-23T04:24:07;9.83;;;6.60;;
65572;SDS011;52214;50.940;13.996;2022-07-23T04:26:32;9.40;;;6.73;;
65572;SDS011;52214;50.940;13.996;2022-07-23T04:28:58;10.32;;;6.60;;
65572;SDS011;52214;50.940;13.996;2022-07-23T04:31:23;8.97;;;6.60;;
65572;SDS011;52214;50.940;13.996;2022-07-23T04:33:49;7.90;;;6.17;;
65572;SDS011;52214;50.940;13.996;2022-07-23T04:36:14;12.83;;;6.93;;
65572;SDS011;52214;50.940;13.996;2022-07-23T04:38:40;8.52;;;6.50;;
65572;SDS011;52214;50.940;13.996;2022-07-23T04:41:05;9.13;;;7.00;;
65572;SDS011;52214;50.940;13.996;2022-07-23T04:43:31;8.53;;;6.53;;
65572;SDS011;52214;50.940;13.996;2022-07-23T04:45:56;10.32;;;6.55;;
65572;SDS011;52214;50.940;13.996;2022-07-23T04:48:22;9.27;;;6.70;;
65572;SDS011;52214;50.940;13.996;2022-07-23T04:50:47;7.53;;;6.00;;
65572;SDS011;52214;50.940;13.996;2022-07-23T04:53:13;8.37;;;6.60;;
65572;SDS011;52214;50.940;13.996;2022-07-23T04:55:38;8.38;;;6.50;;
65572;SDS011;52214;50.940;13.996;2022-07-23T04:58:04;8.23;;;6.70;;
65572;SDS011;52214;50.940;13.996;2022-07-23T05:00:29;10.77;;;6.77;;
65572;SDS011;52214;50.940;13.996;2022-07-23T05:02:54;8.20;;;6.23;;
65572;SDS011;52214;50.940;13.996;2022-07-23T05:05:20;8.75;;;6.40;;
65572;SDS011;52214;50.940;13.996;2022-07-23T05:07:45;12.30;;;6.40;;
65572;SDS011;52214;50.940;13.996;2022-07-23T05:10:11;9.70;;;6.53;;
65572;SDS011;52214;50.940;13.996;2022-07-23T05:12:36;9.27;;;6.50;;
65572;SDS011;52214;50.940;13.996;2022-07-23T05:15:02;9.45;;;6.90;;
65572;SDS011;52214;50.940;13.996;2022-07-23T05:17:27;11.60;;;6.80;;
65572;SDS011;52214;50.940;13.996;2022-07-23T05:19:53;9.90;;;6.85;;
65572;SDS011;52214;50.940;13.996;2022-07-23T05:22:19;9.93;;;6.73;;
65572;SDS011;52214;50.940;13.996;2022-07-23T05:24:44;7.53;;;6.03;;
65572;SDS011;52214;50.940;13.996;2022-07-23T05:27:10;11.67;;;6.43;;
65572;SDS011;52214;50.940;13.996;2022-07-23T05:29:35;10.30;;;6.60;;
65572;SDS011;52214;50.940;13.996;2022-07-23T05:32:01;7.60;;;5.90;;
65572;SDS011;52214;50.940;13.996;2022-07-23T05:34:26;7.80;;;5.80;;
65572;SDS011;52214;50.940;13.996;2022-07-23T05:36:52;9.43;;;5.80;;
65572;SDS011;52214;50.940;13.996;2022-07-23T05:39:17;7.70;;;5.97;;
65572;SDS011;52214;50.940;13.996;2022-07-23T05:41:43;10.50;;;5.90;;
65572;SDS011;52214;50.940;13.996;2022-07-23T05:44:08;7.33;;;5.50;;
65572;SDS011;52214;50.940;13.996;2022-07-23T05:46:33;8.98;;;5.80;;
65572;SDS011;52214;50.940;13.996;2022-07-23T05:48:59;7.90;;;5.70;;
65572;SDS011;52214;50.940;13.996;2022-07-23T05:51:25;9.40;;;5.93;;
65572;SDS011;52214;50.940;13.996;2022-07-23T05:53:50;9.45;;;6.32;;
65572;SDS011;52214;50.940;13.996;2022-07-23T05:56:17;9.35;;;6.53;;
65572;SDS011;52214;50.940;13.996;2022-07-23T05:58:43;9.87;;;6.20;;
65572;SDS011;52214;50.940;13.996;2022-07-23T06:01:09;10.30;;;6.03;;
65572;SDS011;52214;50.940;13.996;2022-07-23T06:03:34;10.00;;;6.45;;
65572;SDS011;52214;50.940;13.996;2022-07-23T06:06:00;8.57;;;6.30;;
65572;SDS011;52214;50.940;13.996;2022-07-23T06:08:26;8.67;;;5.80;;
65572;SDS011;52214;50.940;13.996;2022-07-23T06:10:51;10.98;;;6.18;;
65572;SDS011;52214;50.940;13.996;2022-07-23T06:13:17;9.63;;;6.63;;
65572;SDS011;52214;50.940;13.996;2022-07-23T06:15:43;8.43;;;6.20;;
65572;SDS011;52214;50.940;13.996;2022-07-23T06:18:09;8.90;;;6.10;;
65572;SDS011;52214;50.940;13.996;2022-07-23T06:20:34;11.07;;;6.40;;
65572;SDS011;52214;50.940;13.996;2022-07-23T06:23:00;10.50;;;6.65;;
65572;SDS011;52214;50.940;13.996;2022-07-23T06:25:26;8.00;;;5.73;;
65572;SDS011;52214;50.940;13.996;2022-07-23T06:27:51;7.80;;;5.78;;
65572;SDS011;52214;50.940;13.996;2022-07-23T06:30:17;10.07;;;5.67;;
65572;SDS011;52214;50.940;13.996;2022-07-23T06:32:44;8.75;;;5.20;;
65572;SDS011;52214;50.940;13.996;2022-07-23T06:35:10;7.60;;;5.18;;
65572;SDS011;52214;50.940;13.996;2022-07-23T06:37:35;11.27;;;6.43;;
65572;SDS011;52214;50.940;13.996;2022-07-23T06:40:01;7.20;;;4.60;;
65572;SDS011;52214;50.940;13.996;2022-07-23T06:42:27;6.97;;;5.20;;
65572;SDS011;52214;50.940;13.996;2022-07-23T06:44:52;7.67;;;5.27;;
65572;SDS011;52214;50.940;13.996;2022-07-23T06:47:18;9.33;;;5.93;;
65572;SDS011;52214;50.940;13.996;2022-07-23T06:49:43;9.15;;;5.32;;
65572;SDS011;52214;50.940;13.996;2022-07-23T06:52:09;8.53;;;5.00;;
65572;SDS011;52214;50.940;13.996;2022-07-23T06:54:34;8.23;;;5.37;;
65572;SDS011;52214;50.940;13.996;2022-07-23T06:57:00;8.52;;;5.28;;
65572;SDS011;52214;50.940;13.996;2022-07-23T06:59:25;12.07;;;5.27;;
65572;SDS011;52214;50.940;13.996;2022-07-23T07:01:51;7.57;;;5.00;;
65572;SDS011;52214;50.940;13.996;2022-07-23T07:04:16;7.33;;;4.70;;
65572;SDS011;52214;50.940;13.996;2022-07-23T07:06:42;7.20;;;5.35;;
65572;SDS011;52214;50.940;13.996;2022-07-23T07:09:07;10.07;;;5.77;;
65572;SDS011;52214;50.940;13.996;2022-07-23T07:11:33;8.87;;;5.00;;
65572;SDS011;52214;50.940;13.996;2022-07-23T07:13:58;9.67;;;5.47;;
65572;SDS011;52214;50.940;13.996;2022-07-23T07:16:24;9.27;;;5.75;;
65572;SDS011;52214;50.940;13.996;2022-07-23T07:18:49;8.83;;;5.50;;
65572;SDS011;52214;50.940;13.996;2022-07-23T07:21:14;7.13;;;5.27;;
65572;SDS011;52214;50.940;13.996;2022-07-23T07:23:40;9.50;;;5.33;;
65572;SDS011;52214;50.940;13.996;2022-07-23T07:26:05;10.25;;;5.30;;
65572;SDS011;52214;50.940;13.996;2022-07-23T07:28:31;7.00;;;4.70;;
65572;SDS011;52214;50.940;13.996;2022-07-23T07:30:56;10.03;;;5.90;;
65572;SDS011;52214;50.940;13.996;2022-07-23T07:33:22;7.57;;;5.53;;
65572;SDS011;52214;50.940;13.996;2022-07-23T07:35:47;10.07;;;6.00;;
65572;SDS011;52214;50.940;13.996;2022-07-23T07:38:13;9.63;;;5.83;;
65572;SDS011;52214;50.940;13.996;2022-07-23T07:40:38;9.40;;;6.40;;
65572;SDS011;52214;50.940;13.996;2022-07-23T07:43:04;8.88;;;6.10;;
65572;SDS011;52214;50.940;13.996;2022-07-23T07:45:29;7.53;;;6.03;;
65572;SDS011;52214;50.940;13.996;2022-07-23T07:47:55;10.27;;;7.20;;
65572;SDS011;52214;50.940;13.996;2022-07-23T07:50:21;12.80;;;7.80;;
65572;SDS011;52214;50.940;13.996;2022-07-23T07:52:46;10.68;;;7.10;;
65572;SDS011;52214;50.940;13.996;2022-07-23T07:55:12;10.47;;;6.50;;
65572;SDS011;52214;50.940;13.996;2022-07-23T07:57:38;10.10;;;7.17;;
65572;SDS011;52214;50.940;13.996;2022-07-23T08:00:05;10.18;;;7.28;;
65572;SDS011;52214;50.940;13.996;2022-07-23T08:02:42;12.00;;;7.72;;
65572;SDS011;52214;50.940;13.996;2022-07-23T08:05:09;10.05;;;6.72;;
65572;SDS011;52214;50.940;13.996;2022-07-23T08:07:35;10.90;;;7.43;;
65572;SDS011;52214;50.940;13.996;2022-07-23T08:10:02;10.87;;;7.13;;
65572;SDS011;52214;50.940;13.996;2022-07-23T08:12:30;10.68;;;6.60;;
65572;SDS011;52214;50.940;13.996;2022-07-23T08:15:03;11.30;;;7.18;;
65572;SDS011;52214;50.940;13.996;2022-07-23T08:17:29;8.73;;;6.40;;
65572;SDS011;52214;50.940;13.996;2022-07-23T08:19:54;11.17;;;7.10;;
65572;SDS011;52214;50.940;13.996;2022-07-23T08:22:20;9.80;;;6.97;;
65572;SDS011;52214;50.940;13.996;2022-07-23T08:24:45;10.47;;;7.60;;
65572;SDS011;52214;50.940;13.996;2022-07-23T08:27:10;10.85;;;7.03;;
65572;SDS011;52214;50.940;13.996;2022-07-23T08:29:36;9.67;;;7.07;;
65572;SDS011;52214;50.940;13.996;2022-07-23T08:32:01;12.27;;;7.67;;
65572;SDS011;52214;50.940;13.996;2022-07-23T08:34:27;10.40;;;7.77;;
65572;SDS011;52214;50.940;13.996;2022-07-23T08:36:53;9.25;;;6.97;;
65572;SDS011;52214;50.940;13.996;2022-07-23T08:39:18;9.43;;;6.93;;
65572;SDS011;52214;50.940;13.996;2022-07-23T08:41:44;12.37;;;8.03;;
65572;SDS011;52214;50.940;13.996;2022-07-23T08:44:09;10.20;;;7.60;;
65572;SDS011;52214;50.940;13.996;2022-07-23T08:46:34;9.30;;;7.23;;
65572;SDS011;52214;50.940;13.996;2022-07-23T08:49:01;10.43;;;7.25;;
65572;SDS011;52214;50.940;13.996;2022-07-23T08:51:27;9.23;;;7.00;;
65572;SDS011;52214;50.940;13.996;2022-07-23T08:53:55;10.43;;;7.78;;
65572;SDS011;52214;50.940;13.996;2022-07-23T08:56:22;9.77;;;7.18;;
65572;SDS011;52214;50.940;13.996;2022-07-23T08:58:47;11.30;;;8.03;;
65572;SDS011;52214;50.940;13.996;2022-07-23T09:01:14;8.97;;;6.83;;
65572;SDS011;52214;50.940;13.996;2022-07-23T09:03:39;15.30;;;8.00;;
65572;SDS011;52214;50.940;13.996;2022-07-23T09:06:05;10.52;;;8.20;;
65572;SDS011;52214;50.940;13.996;2022-07-23T09:08:40;11.33;;;7.63;;
65572;SDS011;52214;50.940;13.996;2022-07-23T09:11:08;9.35;;;7.00;;
65572;SDS011;52214;50.940;13.996;2022-07-23T09:16:08;10.23;;;7.22;;
65572;SDS011;52214;50.940;13.996;2022-07-23T09:18:37;10.98;;;7.53;;
65572;SDS011;52214;50.940;13.996;2022-07-23T09:23:39;8.55;;;6.90;;
65572;SDS011;52214;50.940;13.996;2022-07-23T09:28:57;9.13;;;6.35;;
65572;SDS011;52214;50.940;13.996;2022-07-23T09:32:00;11.68;;;6.50;;
65572;SDS011;52214;50.940;13.996;2022-07-23T09:36:57;9.45;;;6.35;;
65572;SDS011;52214;50.940;13.996;2022-07-23T09:39:33;8.90;;;6.63;;
65572;SDS011;52214;50.940;13.996;2022-07-23T09:42:12;8.55;;;6.22;;
65572;SDS011;52214;50.940;13.996;2022-07-23T09:44:47;8.68;;;6.20;;
65572;SDS011;52214;50.940;13.996;2022-07-23T09:47:13;6.97;;;5.75;;
65572;SDS011;52214;50.940;13.996;2022-07-23T09:49:39;9.37;;;6.03;;
65572;SDS011;52214;50.940;13.996;2022-07-23T09:52:05;9.27;;;5.90;;
65572;SDS011;52214;50.940;13.996;2022-07-23T09:54:32;8.77;;;5.80;;
65572;SDS011;52214;50.940;13.996;2022-07-23T09:57:06;7.93;;;5.65;;
65572;SDS011;52214;50.940;13.996;2022-07-23T09:59:36;8.40;;;6.13;;
65572;SDS011;52214;50.940;13.996;2022-07-23T10:02:03;8.50;;;5.28;;
65572;SDS011;52214;50.940;13.996;2022-07-23T10:04:31;7.65;;;5.30;;
65572;SDS011;52214;50.940;13.996;2022-07-23T10:07:00;7.60;;;6.10;;
65572;SDS011;52214;50.940;13.996;2022-07-23T10:09:28;7.53;;;5.45;;
65572;SDS011;52214;50.940;13.996;2022-07-23T10:11:56;10.15;;;5.40;;
65572;SDS011;52214;50.940;13.996;2022-07-23T10:14:29;8.52;;;5.95;;
65572;SDS011;52214;50.940;13.996;2022-07-23T10:16:57;6.97;;;5.50;;
65572;SDS011;52214;50.940;13.996;2022-07-23T10:19:22;9.47;;;5.23;;
65572;SDS011;52214;50.940;13.996;2022-07-23T10:21:49;9.13;;;5.18;;
65572;SDS011;52214;50.940;13.996;2022-07-23T10:27:27;7.32;;;5.38;;
65572;SDS011;52214;50.940;13.996;2022-07-23T10:30:09;7.13;;;5.20;;
65572;SDS011;52214;50.940;13.996;2022-07-23T10:41:30;8.45;;;5.70;;
65572;SDS011;52214;50.940;13.996;2022-07-23T10:44:07;9.05;;;5.25;;
65572;SDS011;52214;50.940;13.996;2022-07-23T10:49:27;9.77;;;5.10;;
65572;SDS011;52214;50.940;13.996;2022-07-23T10:52:16;8.47;;;5.33;;
65572;SDS011;52214;50.940;13.996;2022-07-23T10:57:11;11.57;;;5.38;;
65572;SDS011;52214;50.940;13.996;2022-07-23T11:02:26;9.07;;;5.25;;
65572;SDS011;52214;50.940;13.996;2022-07-23T11:04:54;7.57;;;5.20;;
65572;SDS011;52214;50.940;13.996;2022-07-23T11:07:25;8.95;;;5.40;;
65572;SDS011;52214;50.940;13.996;2022-07-23T11:09:51;8.98;;;5.80;;
65572;SDS011;52214;50.940;13.996;2022-07-23T11:17:39;8.65;;;5.60;;
65572;SDS011;52214;50.940;13.996;2022-07-23T11:22:40;9.30;;;5.43;;
65572;SDS011;52214;50.940;13.996;2022-07-23T11:25:13;8.88;;;5.47;;
65572;SDS011;52214;50.940;13.996;2022-07-23T11:28:09;7.32;;;4.88;;
65572;SDS011;52214;50.940;13.996;2022-07-23T11:30:42;7.35;;;5.30;;
65572;SDS011;52214;50.940;13.996;2022-07-23T11:35:37;7.77;;;5.10;;
65572;SDS011;52214;50.940;13.996;2022-07-23T11:38:06;8.30;;;5.45;;
65572;SDS011;52214;50.940;13.996;2022-07-23T11:40:37;8.70;;;5.60;;
65572;SDS011;52214;50.940;13.996;2022-07-23T11:43:04;11.18;;;5.35;;
65572;SDS011;52214;50.940;13.996;2022-07-23T11:48:08;9.70;;;5.05;;
65572;SDS011;52214;50.940;13.996;2022-07-23T11:50:35;7.83;;;5.60;;
65572;SDS011;52214;50.940;13.996;2022-07-23T11:53:01;8.80;;;5.50;;
65572;SDS011;52214;50.940;13.996;2022-07-23T11:55:28;11.82;;;5.45;;
65572;SDS011;52214;50.940;13.996;2022-07-23T11:57:53;10.82;;;5.32;;
65572;SDS011;52214;50.940;13.996;2022-07-23T12:00:20;7.50;;;5.43;;
65572;SDS011;52214;50.940;13.996;2022-07-23T12:02:49;8.27;;;5.72;;
65572;SDS011;52214;50.940;13.996;2022-07-23T12:05:18;7.45;;;5.13;;
65572;SDS011;52214;50.940;13.996;2022-07-23T12:08:05;8.02;;;5.47;;
65572;SDS011;52214;50.940;13.996;2022-07-23T12:10:36;7.22;;;5.43;;
65572;SDS011;52214;50.940;13.996;2022-07-23T12:13:03;7.37;;;5.30;;
65572;SDS011;52214;50.940;13.996;2022-07-23T12:15:32;8.48;;;5.50;;
65572;SDS011;52214;50.940;13.996;2022-07-23T12:18:02;7.70;;;5.47;;
65572;SDS011;52214;50.940;13.996;2022-07-23T12:20:29;6.95;;;4.93;;
65572;SDS011;52214;50.940;13.996;2022-07-23T12:25:29;7.90;;;4.68;;
65572;SDS011;52214;50.940;13.996;2022-07-23T12:28:00;7.00;;;4.63;;
65572;SDS011;52214;50.940;13.996;2022-07-23T12:30:32;8.27;;;4.57;;
65572;SDS011;52214;50.940;13.996;2022-07-23T12:33:02;6.95;;;4.55;;
65572;SDS011;52214;50.940;13.996;2022-07-23T12:35:35;6.30;;;4.47;;
65572;SDS011;52214;50.940;13.996;2022-07-23T12:38:16;8.02;;;4.75;;
65572;SDS011;52214;50.940;13.996;2022-07-23T12:40:47;6.53;;;4.70;;
65572;SDS011;52214;50.940;13.996;2022-07-23T12:43:20;6.90;;;4.90;;
65572;SDS011;52214;50.940;13.996;2022-07-23T12:48:35;7.00;;;4.30;;
65572;SDS011;52214;50.940;13.996;2022-07-23T12:51:27;7.28;;;4.93;;
65572;SDS011;52214;50.940;13.996;2022-07-23T12:56:28;6.85;;;4.90;;
65572;SDS011;52214;50.940;13.996;2022-07-23T12:58:55;7.60;;;5.50;;
65572;SDS011;52214;50.940;13.996;2022-07-23T13:03:58;6.57;;;4.85;;
65572;SDS011;52214;50.940;13.996;2022-07-23T13:06:32;7.35;;;5.28;;
65572;SDS011;52214;50.940;13.996;2022-07-23T13:08:59;8.70;;;5.68;;
65572;SDS011;52214;50.940;13.996;2022-07-23T13:11:25;7.73;;;5.20;;
65572;SDS011;52214;50.940;13.996;2022-07-23T13:13:50;8.55;;;5.38;;
65572;SDS011;52214;50.940;13.996;2022-07-23T13:16:16;11.43;;;5.47;;
65572;SDS011;52214;50.940;13.996;2022-07-23T13:18:42;8.27;;;5.57;;
65572;SDS011;52214;50.940;13.996;2022-07-23T13:21:08;8.43;;;5.27;;
65572;SDS011;52214;50.940;13.996;2022-07-23T13:23:34;8.23;;;5.40;;
65572;SDS011;52214;50.940;13.996;2022-07-23T13:25:59;8.45;;;5.40;;
65572;SDS011;52214;50.940;13.996;2022-07-23T13:28:25;7.10;;;4.87;;
65572;SDS011;52214;50.940;13.996;2022-07-23T13:30:51;8.33;;;5.00;;
65572;SDS011;52214;50.940;13.996;2022-07-23T13:33:17;7.28;;;5.38;;
65572;SDS011;52214;50.940;13.996;2022-07-23T13:35:46;7.28;;;5.45;;
65572;SDS011;52214;50.940;13.996;2022-07-23T13:38:12;10.60;;;5.00;;
65572;SDS011;52214;50.940;13.996;2022-07-23T13:40:39;6.45;;;5.05;;
65572;SDS011;52214;50.940;13.996;2022-07-23T13:43:08;7.95;;;5.15;;
65572;SDS011;52214;50.940;13.996;2022-07-23T13:45:35;7.30;;;5.50;;
65572;SDS011;52214;50.940;13.996;2022-07-23T13:48:01;7.00;;;5.43;;
65572;SDS011;52214;50.940;13.996;2022-07-23T13:50:27;6.97;;;5.25;;
65572;SDS011;52214;50.940;13.996;2022-07-23T13:52:53;7.07;;;5.47;;
65572;SDS011;52214;50.940;13.996;2022-07-23T13:55:18;10.20;;;6.03;;
65572;SDS011;52214;50.940;13.996;2022-07-23T13:57:44;6.53;;;5.00;;
65572;SDS011;52214;50.940;13.996;2022-07-23T14:00:10;7.37;;;5.50;;
65572;SDS011;52214;50.940;13.996;2022-07-23T14:02:38;7.13;;;5.50;;
65572;SDS011;52214;50.940;13.996;2022-07-23T14:05:05;8.20;;;5.17;;
65572;SDS011;52214;50.940;13.996;2022-07-23T14:07:32;9.13;;;5.90;;
65572;SDS011;52214;50.940;13.996;2022-07-23T14:09:59;9.02;;;5.80;;
65572;SDS011;52214;50.940;13.996;2022-07-23T14:12:25;8.50;;;5.27;;
65572;SDS011;52214;50.940;13.996;2022-07-23T14:14:50;8.15;;;5.90;;
65572;SDS011;52214;50.940;13.996;2022-07-23T14:17:16;7.38;;;5.65;;
65572;SDS011;52214;50.940;13.996;2022-07-23T14:19:42;7.73;;;6.23;;
65572;SDS011;52214;50.940;13.996;2022-07-23T14:22:07;8.27;;;5.38;;
65572;SDS011;52214;50.940;13.996;2022-07-23T14:24:33;8.00;;;5.27;;
65572;SDS011;52214;50.940;13.996;2022-07-23T14:26:59;7.95;;;5.25;;
65572;SDS011;52214;50.940;13.996;2022-07-23T14:29:26;7.73;;;5.53;;
65572;SDS011;52214;50.940;13.996;2022-07-23T14:31:52;7.85;;;5.78;;
65572;SDS011;52214;50.940;13.996;2022-07-23T14:34:18;8.27;;;5.57;;
65572;SDS011;52214;50.940;13.996;2022-07-23T14:36:43;8.77;;;5.50;;
65572;SDS011;52214;50.940;13.996;2022-07-23T14:39:09;8.43;;;5.70;;
65572;SDS011;52214;50.940;13.996;2022-07-23T14:41:34;7.67;;;5.47;;
65572;SDS011;52214;50.940;13.996;2022-07-23T14:44:01;7.50;;;5.75;;
65572;SDS011;52214;50.940;13.996;2022-07-23T14:46:28;8.88;;;6.13;;
65572;SDS011;52214;50.940;13.996;2022-07-23T14:48:53;10.00;;;6.10;;
65572;SDS011;52214;50.940;13.996;2022-07-23T14:51:19;8.40;;;5.63;;
65572;SDS011;52214;50.940;13.996;2022-07-23T14:53:44;7.93;;;5.13;;
65572;SDS011;52214;50.940;13.996;2022-07-23T14:56:10;7.97;;;5.77;;
65572;SDS011;52214;50.940;13.996;2022-07-23T14:58:35;9.77;;;6.00;;
65572;SDS011;52214;50.940;13.996;2022-07-23T15:01:01;9.50;;;6.10;;
65572;SDS011;52214;50.940;13.996;2022-07-23T15:03:26;7.30;;;5.60;;
65572;SDS011;52214;50.940;13.996;2022-07-23T15:05:52;8.80;;;6.30;;
65572;SDS011;52214;50.940;13.996;2022-07-23T15:08:17;8.43;;;5.90;;
65572;SDS011;52214;50.940;13.996;2022-07-23T15:10:43;7.57;;;5.80;;
65572;SDS011;52214;50.940;13.996;2022-07-23T15:13:08;9.20;;;5.97;;
65572;SDS011;52214;50.940;13.996;2022-07-23T15:15:34;8.75;;;5.55;;
65572;SDS011;52214;50.940;13.996;2022-07-23T15:17:59;7.43;;;5.53;;
65572;SDS011;52214;50.940;13.996;2022-07-23T15:20:25;7.28;;;4.88;;
65572;SDS011;52214;50.940;13.996;2022-07-23T15:22:51;9.60;;;5.70;;
65572;SDS011;52214;50.940;13.996;2022-07-23T15:25:16;8.10;;;5.73;;